Aérodrome :







RETROUVEZ-NOUS SUR...

 
LOGIN :

S'inscrire | Disclaimer

   EN    FR    IT 

 









Légende :    VFR   VFR Marginal   IFR   IFR Intensif   IFR Très Intensif
Visi : 
Plafond : 
>= 8 km
>= 3000ft
5 à 8 km
1000 à 3000 ft
1500m à 5 km
500 à 1000 ft
800 à 1500m
200 à 500 ft
< 800m
< 200 ft
Symboles :   Orages  Brouillard  Fortes neiges  Fortes précipitations  Vent > 20 kt






- Altitude de l'aérodrome : 522 ft
- Code IATA : YBG


CYBG - CFB Bagotville

DERNIER METAR :
  • 270000Z 09005KT 10SM -SN SCT019 BKN040 OVC070 M02/M03 A2951 RMK SC4SC3AC1 PCPN VRY LGT SLP001

METARs EXPIRÉS :
  • 262321Z 09005KT 10SM -SN SCT018 BKN040 OVC070 M02/M03 A2951 RMK SC3SC4AC1 PCPN VRY LGT SLP001
  • 262300Z 09006KT 10SM -SNSG SCT017 BKN040 OVC070 M02/M03 A2951 RMK SC3SC4AC1 PCPN VRY LGT SLP002
  • 262247Z 09006KT 10SM -FZDZ -SG BKN017 BKN040 OVC070 M02/M03 A2951 RMK SC5SC2AC1 PCPN VRY LGT SLP002
  • 262200Z 10003KT 10SM SCT040 OVC070 M02/M03 A2952 RMK SC4AC4 SLP004

TAF TAF CYBG
Valide du 27 à 00h jusqu'au 28 à 00h UTC


262330Z 2700/2724 09005KT P6SM SCT015 BKN040 OVC070
TEMPO 2700/2703 2SM -SG -SN BR BKN015 OVC040
FM270300 VRB03KT 6SM -SN FEW008 OVC025
TEMPO 2703/2708 2SM -SN SCT008 OVC015
PROB30 2703/2708 11/2SM -SHSN BKN008 OVC015
FM270800 27005KT 4SM -SN SCT008 OVC015
FM271600 29008KT P6SM -SN BKN020 OVC040
FM272000 29008KT P6SM BKN030 OVC060 RMK NXT FCST BY 270600Z



MET'MAP, la Météo Aéronautique d'un coup d'oeil ! - Copyright ORBIFLY Décembre 2007 - Disclaimer

ORBIFLY MET'MAP TEAM :

Programmation & Développement : Alexandra Zaïnal
Sur une idée originale de : Baudouin d'Aumeries
Assistance à la programmation : Marc-Olivier Méhu
Soutien technique & logistique : Manuel Goepfert

Contact : metmap@orbifly.com




SOURCES & CREDITS :

   NOAA